createdAt,value
2024-04-30T00:00:20.231Z,45.37
2024-04-30T00:03:08.309Z,45.37
2024-04-30T00:05:36.250Z,45.68
2024-04-30T00:08:04.454Z,45.78
2024-04-30T00:10:32.395Z,45.56
2024-04-30T00:13:00.468Z,45.72
2024-04-30T00:15:28.478Z,45.81
2024-04-30T00:17:56.406Z,45.83
2024-04-30T00:20:24.341Z,45.84
2024-04-30T00:22:52.356Z,45.75
2024-04-30T00:25:20.328Z,45.84
2024-04-30T00:27:50.030Z,46.14
2024-04-30T00:30:17.931Z,46.13
2024-04-30T00:32:45.808Z,46.38
2024-04-30T00:35:13.825Z,46.30
2024-04-30T00:37:42.181Z,46.68
2024-04-30T00:40:10.401Z,46.67
2024-04-30T00:42:38.349Z,46.87
2024-04-30T00:45:06.551Z,46.82
2024-04-30T00:47:34.583Z,46.92
2024-04-30T00:50:03.456Z,47.04
2024-04-30T00:52:32.826Z,47.02
2024-04-30T00:55:01.110Z,47.15
2024-04-30T00:57:29.849Z,47.97
2024-04-30T00:59:57.757Z,47.86
2024-04-30T01:02:27.185Z,48.15
2024-04-30T01:05:01.157Z,47.91
2024-04-30T01:07:29.113Z,48.03
2024-04-30T01:09:57.250Z,48.07
2024-04-30T01:12:25.263Z,48.16
2024-04-30T01:14:53.131Z,48.47
2024-04-30T01:17:21.066Z,48.63
2024-04-30T01:19:48.977Z,49.17
2024-04-30T01:22:16.898Z,48.90
2024-04-30T01:24:44.818Z,48.88
2024-04-30T01:27:12.705Z,49.47
2024-04-30T01:29:40.544Z,49.81
2024-04-30T01:32:09.650Z,50.04
2024-04-30T01:34:39.048Z,51.31
2024-04-30T01:37:07.634Z,51.57
2024-04-30T01:39:35.509Z,50.82
2024-04-30T01:42:03.471Z,50.94
2024-04-30T01:44:31.324Z,50.83
2024-04-30T01:46:59.142Z,51.28
2024-04-30T01:49:27.100Z,50.91
2024-04-30T01:51:54.935Z,50.92
2024-04-30T01:54:22.839Z,50.70
2024-04-30T01:56:50.732Z,51.08
2024-04-30T01:59:18.575Z,51.08
2024-04-30T02:01:46.551Z,50.88
2024-04-30T02:04:14.422Z,50.64
2024-04-30T02:06:42.623Z,50.89
2024-04-30T02:09:10.528Z,51.09
2024-04-30T02:11:38.446Z,50.69
2024-04-30T02:14:06.272Z,50.64
2024-04-30T02:16:34.228Z,50.65
2024-04-30T02:19:02.114Z,50.85
2024-04-30T02:21:30.003Z,50.55
2024-04-30T02:23:57.843Z,50.70
2024-04-30T02:26:26.117Z,50.88
2024-04-30T02:28:53.968Z,50.88
2024-04-30T02:31:40.455Z,51.20
2024-04-30T02:34:19.760Z,51.42
2024-04-30T02:36:47.684Z,51.20
2024-04-30T02:39:15.591Z,51.71
2024-04-30T02:41:43.484Z,51.37
2024-04-30T02:44:11.380Z,51.28
2024-04-30T02:46:39.351Z,51.09
2024-04-30T02:49:07.429Z,51.16
2024-04-30T02:51:35.312Z,51.30
2024-04-30T02:54:03.193Z,51.11
2024-04-30T02:56:31.121Z,51.34
2024-04-30T02:58:58.958Z,51.44
2024-04-30T03:01:26.931Z,51.43
2024-04-30T03:03:54.866Z,51.66
2024-04-30T03:06:22.742Z,51.45
2024-04-30T03:08:50.596Z,51.56
2024-04-30T03:11:18.633Z,51.36
2024-04-30T03:13:46.789Z,51.45
2024-04-30T03:16:14.733Z,51.36
2024-04-30T03:18:42.742Z,51.73
2024-04-30T03:21:11.729Z,51.36
2024-04-30T03:23:39.993Z,51.35
2024-04-30T03:26:08.013Z,51.39
2024-04-30T03:28:36.018Z,51.60
2024-04-30T03:31:06.409Z,51.27
2024-04-30T03:33:37.302Z,51.65
2024-04-30T03:36:05.918Z,51.51
2024-04-30T03:38:39.309Z,51.75
2024-04-30T03:41:14.993Z,52.05
2024-04-30T03:43:44.342Z,52.04
2024-04-30T03:46:16.115Z,52.20
2024-04-30T03:48:43.970Z,51.94
2024-04-30T03:51:11.879Z,52.02
2024-04-30T03:53:40.459Z,52.61
2024-04-30T03:56:08.361Z,52.48
2024-04-30T03:58:36.394Z,52.41
2024-04-30T04:01:05.082Z,52.79
2024-04-30T04:03:33.097Z,52.64
2024-04-30T04:06:01.006Z,52.85
2024-04-30T04:08:28.895Z,53.31
2024-04-30T04:11:15.357Z,53.25
2024-04-30T04:14:01.890Z,53.23
2024-04-30T04:16:29.812Z,53.04
2024-04-30T04:18:57.674Z,53.39
2024-04-30T04:21:25.509Z,52.85
2024-04-30T04:23:53.343Z,53.35
2024-04-30T04:26:21.251Z,53.12
2024-04-30T04:28:49.209Z,53.08
2024-04-30T04:31:17.210Z,53.05
2024-04-30T04:33:45.081Z,53.63
2024-04-30T04:36:14.131Z,53.56
2024-04-30T04:38:43.025Z,53.85
2024-04-30T04:41:10.956Z,54.15
2024-04-30T04:43:39.027Z,54.07
2024-04-30T04:46:06.969Z,53.87
2024-04-30T04:48:34.901Z,53.58
2024-04-30T04:51:03.024Z,53.48
2024-04-30T04:53:30.867Z,53.21
2024-04-30T04:55:58.753Z,53.29
2024-04-30T04:58:26.652Z,53.26
2024-04-30T05:00:56.377Z,53.68
2024-04-30T05:03:24.336Z,53.57
2024-04-30T05:05:52.276Z,53.41
2024-04-30T05:08:20.201Z,53.43
2024-04-30T05:10:48.123Z,53.42
2024-04-30T05:13:16.149Z,52.92
2024-04-30T05:15:44.095Z,52.84
2024-04-30T05:18:11.986Z,53.18
2024-04-30T05:20:39.934Z,52.89
2024-04-30T05:23:08.356Z,53.12
2024-04-30T05:25:37.000Z,53.31
2024-04-30T05:28:06.321Z,53.09
2024-04-30T05:30:34.329Z,52.88
2024-04-30T05:33:03.746Z,53.13
2024-04-30T05:35:31.798Z,53.18
2024-04-30T05:37:59.790Z,53.19
2024-04-30T05:40:27.801Z,53.23
2024-04-30T05:42:55.779Z,53.01
2024-04-30T05:45:23.668Z,52.98
2024-04-30T05:47:51.534Z,53.39
2024-04-30T05:50:21.988Z,53.13
2024-04-30T05:52:49.800Z,53.13
2024-04-30T05:55:17.811Z,53.54
2024-04-30T05:57:45.707Z,52.86
2024-04-30T06:00:13.871Z,52.89
2024-04-30T06:02:41.781Z,53.62
2024-04-30T06:05:09.867Z,53.15
2024-04-30T06:07:38.018Z,53.67
2024-04-30T06:10:06.681Z,52.91
2024-04-30T06:12:34.576Z,52.87
2024-04-30T06:15:03.593Z,52.83
2024-04-30T06:17:31.550Z,52.93
2024-04-30T06:19:59.493Z,53.64
2024-04-30T06:22:27.434Z,53.11
2024-04-30T06:24:55.353Z,53.04
2024-04-30T06:27:23.302Z,53.34
2024-04-30T06:29:51.177Z,53.42
2024-04-30T06:32:19.054Z,53.98
2024-04-30T06:34:47.174Z,53.49
2024-04-30T06:37:15.571Z,53.70
2024-04-30T06:39:44.283Z,53.58
2024-04-30T06:42:12.529Z,53.68
2024-04-30T06:44:40.343Z,53.72
2024-04-30T06:47:08.278Z,53.24
2024-04-30T06:49:36.196Z,52.79
2024-04-30T06:52:04.954Z,52.40
2024-04-30T06:54:32.956Z,52.92
2024-04-30T06:57:00.803Z,53.16
2024-04-30T06:59:28.663Z,53.36
2024-04-30T07:01:56.546Z,53.55
2024-04-30T07:04:24.706Z,53.33
2024-04-30T07:06:53.036Z,53.00
2024-04-30T07:09:20.885Z,53.29
2024-04-30T07:11:48.908Z,53.15
2024-04-30T07:14:16.757Z,52.37
2024-04-30T07:16:52.077Z,52.23
2024-04-30T07:19:24.892Z,51.83
2024-04-30T07:21:52.853Z,51.76
2024-04-30T07:24:20.810Z,51.35
2024-04-30T07:26:48.695Z,51.45
2024-04-30T07:29:16.504Z,50.67
2024-04-30T07:31:44.491Z,51.12
2024-04-30T07:34:12.612Z,50.81
2024-04-30T07:36:40.609Z,50.37
2024-04-30T07:39:08.508Z,50.54
2024-04-30T07:41:38.929Z,50.60
2024-04-30T07:44:06.732Z,50.40
2024-04-30T07:46:34.662Z,50.12
2024-04-30T07:49:03.024Z,49.98
2024-04-30T07:51:30.828Z,50.35
2024-04-30T07:53:58.626Z,50.25
2024-04-30T07:56:26.530Z,49.08
2024-04-30T07:58:54.364Z,48.81
2024-04-30T08:01:22.549Z,48.94
2024-04-30T08:03:50.488Z,47.57
2024-04-30T08:06:20.799Z,47.45
2024-04-30T08:08:49.310Z,47.88
2024-04-30T08:11:17.224Z,47.77
2024-04-30T08:13:45.609Z,48.58
2024-04-30T08:16:14.617Z,47.59
2024-04-30T08:18:43.829Z,47.04
2024-04-30T08:21:11.924Z,46.26
2024-04-30T08:23:39.945Z,46.60
2024-04-30T08:26:08.130Z,46.23
2024-04-30T08:28:36.220Z,46.52
2024-04-30T08:31:04.935Z,46.26
2024-04-30T08:33:33.354Z,46.12
2024-04-30T08:36:01.330Z,45.97
2024-04-30T08:38:29.264Z,45.82
2024-04-30T08:40:58.447Z,46.18
2024-04-30T08:43:29.448Z,45.99
2024-04-30T08:45:58.747Z,45.85
2024-04-30T08:48:27.798Z,45.52
2024-04-30T08:50:57.149Z,45.65
2024-04-30T08:53:25.134Z,45.34
2024-04-30T08:55:54.598Z,45.62
2024-04-30T08:58:22.810Z,45.97
2024-04-30T09:00:53.641Z,45.62
2024-04-30T09:03:26.472Z,45.23
2024-04-30T09:05:55.730Z,44.52
2024-04-30T09:08:25.203Z,43.94
2024-04-30T09:10:53.207Z,44.29
2024-04-30T09:13:34.039Z,44.05
2024-04-30T09:16:02.333Z,43.82
2024-04-30T09:18:30.309Z,44.59
2024-04-30T09:21:08.000Z,44.55
2024-04-30T09:23:44.482Z,43.96
2024-04-30T09:26:12.604Z,43.07
2024-04-30T09:28:41.673Z,43.32
2024-04-30T09:31:11.836Z,43.72
2024-04-30T09:33:40.206Z,43.99
2024-04-30T09:36:10.580Z,43.79
2024-04-30T09:38:40.287Z,41.67
2024-04-30T09:41:12.492Z,42.18
2024-04-30T09:43:41.339Z,42.46
2024-04-30T09:46:09.528Z,41.00
2024-04-30T09:48:39.874Z,40.00
2024-04-30T09:51:13.734Z,40.07
2024-04-30T09:53:42.392Z,39.50
2024-04-30T09:56:11.525Z,39.47
2024-04-30T09:58:40.235Z,39.75
2024-04-30T10:01:12.216Z,39.34
2024-04-30T10:03:42.821Z,38.08
2024-04-30T10:06:14.009Z,38.51
2024-04-30T10:08:45.321Z,38.83
2024-04-30T10:11:13.641Z,37.77
2024-04-30T10:13:51.015Z,37.22
2024-04-30T10:16:20.548Z,38.04
2024-04-30T10:18:50.366Z,37.75
2024-04-30T10:21:18.263Z,37.36
2024-04-30T10:23:46.950Z,37.20
2024-04-30T10:26:15.836Z,36.60
2024-04-30T10:28:44.055Z,36.65
2024-04-30T10:31:15.283Z,36.44
2024-04-30T10:33:43.455Z,36.63
2024-04-30T10:36:15.624Z,36.78
2024-04-30T10:38:43.551Z,36.99
2024-04-30T10:41:11.613Z,36.05
2024-04-30T10:43:40.368Z,35.39
2024-04-30T10:46:14.366Z,35.13
2024-04-30T10:48:56.090Z,35.99
2024-04-30T10:51:25.624Z,35.86
2024-04-30T10:53:58.388Z,35.82
2024-04-30T10:56:26.395Z,35.97
2024-04-30T10:58:55.218Z,35.88
2024-04-30T11:01:24.799Z,35.60
2024-04-30T11:04:04.984Z,35.80
2024-04-30T11:06:45.864Z,35.33
2024-04-30T11:09:15.802Z,35.22
2024-04-30T11:11:48.725Z,34.54
2024-04-30T11:14:17.869Z,34.90
2024-04-30T11:16:50.296Z,34.32
2024-04-30T11:19:21.494Z,33.83
2024-04-30T11:21:51.608Z,34.60
2024-04-30T11:24:19.611Z,34.50
2024-04-30T11:26:50.552Z,34.45
2024-04-30T11:31:49.764Z,34.34
2024-04-30T11:34:17.879Z,34.01
2024-04-30T11:36:47.246Z,34.37
2024-04-30T11:39:15.367Z,34.12
2024-04-30T11:41:49.094Z,34.54
2024-04-30T11:44:25.024Z,34.73
2024-04-30T11:46:52.872Z,34.52
2024-04-30T11:49:20.907Z,34.58
2024-04-30T11:51:48.786Z,34.21
2024-04-30T11:54:16.637Z,34.40
2024-04-30T11:56:47.654Z,34.61
2024-04-30T11:59:15.468Z,34.20
2024-04-30T12:01:43.323Z,34.41
2024-04-30T12:04:11.478Z,34.83
2024-04-30T12:06:40.037Z,34.92
2024-04-30T12:09:07.857Z,34.63
2024-04-30T12:11:39.300Z,35.06
2024-04-30T12:14:07.289Z,34.76
2024-04-30T12:16:35.211Z,33.09
2024-04-30T12:19:05.008Z,32.55
2024-04-30T12:21:32.895Z,32.83
2024-04-30T12:24:00.711Z,32.64
2024-04-30T12:26:28.547Z,32.67
2024-04-30T12:28:56.360Z,32.43
2024-04-30T12:31:24.242Z,32.16
2024-04-30T12:33:52.077Z,32.36
2024-04-30T12:36:20.062Z,32.00
2024-04-30T12:38:47.892Z,31.81
2024-04-30T12:41:15.740Z,31.74
2024-04-30T12:43:43.645Z,31.84
2024-04-30T12:46:11.557Z,32.34
2024-04-30T12:48:39.515Z,32.45
2024-04-30T12:51:07.445Z,32.99
2024-04-30T12:53:35.258Z,33.28
2024-04-30T12:56:03.168Z,33.09
2024-04-30T12:58:31.010Z,33.25
2024-04-30T13:00:58.980Z,33.32
2024-04-30T13:03:26.998Z,33.22
2024-04-30T13:05:54.957Z,33.62
2024-04-30T13:08:22.932Z,33.78
2024-04-30T13:10:51.005Z,33.89
2024-04-30T13:13:19.057Z,33.56
2024-04-30T13:15:46.904Z,33.61
2024-04-30T13:18:14.769Z,33.31
2024-04-30T13:20:42.616Z,32.84
2024-04-30T13:23:10.475Z,32.46
2024-04-30T13:25:38.433Z,32.05
2024-04-30T13:28:06.738Z,31.68
2024-04-30T13:30:34.749Z,31.21
2024-04-30T13:33:06.785Z,31.82
2024-04-30T13:35:34.844Z,31.89
2024-04-30T13:38:02.758Z,31.09
2024-04-30T13:40:31.921Z,30.78
2024-04-30T13:43:00.132Z,30.54
2024-04-30T13:45:28.210Z,30.10
2024-04-30T13:47:56.167Z,30.34
2024-04-30T13:50:24.455Z,30.32
2024-04-30T13:52:52.339Z,29.83
2024-04-30T13:55:20.261Z,29.63
2024-04-30T13:57:48.197Z,30.36
2024-04-30T14:00:16.310Z,30.51
2024-04-30T14:02:47.513Z,30.09
2024-04-30T14:05:15.524Z,29.55
2024-04-30T14:07:46.436Z,29.46
2024-04-30T14:10:14.776Z,29.38
2024-04-30T14:12:48.986Z,30.29
2024-04-30T14:15:17.281Z,30.27
2024-04-30T14:17:45.307Z,29.77
2024-04-30T14:20:13.263Z,30.05
2024-04-30T14:22:41.859Z,29.57
2024-04-30T14:25:10.212Z,28.83
2024-04-30T14:27:38.141Z,29.36
2024-04-30T14:30:06.872Z,29.15
2024-04-30T14:32:34.855Z,29.08
2024-04-30T14:35:02.941Z,29.38
2024-04-30T14:37:31.140Z,29.44
2024-04-30T14:39:59.029Z,29.19
2024-04-30T14:42:26.929Z,29.21
2024-04-30T14:44:55.367Z,29.57
2024-04-30T14:47:23.528Z,29.23
2024-04-30T14:49:51.692Z,29.30
2024-04-30T14:52:19.714Z,29.25
2024-04-30T14:54:48.043Z,28.86
2024-04-30T14:57:15.932Z,28.27
2024-04-30T14:59:43.815Z,28.58
2024-04-30T15:02:11.756Z,29.38
2024-04-30T15:04:39.687Z,29.15
2024-04-30T15:07:07.561Z,29.91
2024-04-30T15:09:35.952Z,29.80
2024-04-30T15:12:04.127Z,30.01
2024-04-30T15:14:32.081Z,30.53
2024-04-30T15:17:00.055Z,30.53
2024-04-30T15:19:28.124Z,30.53
2024-04-30T15:21:57.187Z,31.25
2024-04-30T15:24:25.057Z,31.27
2024-04-30T15:26:52.940Z,31.20
2024-04-30T15:29:20.918Z,31.71
2024-04-30T15:31:49.007Z,31.77
2024-04-30T15:34:17.125Z,31.84
2024-04-30T15:36:45.045Z,30.97
2024-04-30T15:39:19.523Z,30.99
2024-04-30T15:41:47.425Z,31.55
2024-04-30T15:44:15.265Z,31.80
2024-04-30T15:46:43.419Z,32.31
2024-04-30T15:49:14.935Z,32.76
2024-04-30T15:51:42.896Z,33.55
2024-04-30T15:54:14.324Z,33.79
2024-04-30T15:56:50.404Z,34.73
2024-04-30T15:59:22.507Z,35.03
2024-04-30T16:01:51.089Z,35.33
2024-04-30T16:04:19.365Z,35.41
2024-04-30T16:06:47.436Z,35.96
2024-04-30T16:09:15.296Z,36.26
2024-04-30T16:11:43.518Z,36.43
2024-04-30T16:14:11.359Z,36.96
2024-04-30T16:16:40.344Z,36.94
2024-04-30T16:19:12.867Z,37.27
2024-04-30T16:21:40.857Z,37.91
2024-04-30T16:24:13.093Z,37.29
2024-04-30T16:26:41.760Z,37.88
2024-04-30T16:29:09.998Z,38.64
2024-04-30T16:31:38.405Z,39.20
2024-04-30T16:34:06.589Z,38.56
2024-04-30T16:36:34.579Z,39.50
2024-04-30T16:39:02.440Z,39.89
2024-04-30T16:41:30.374Z,39.92
2024-04-30T16:43:58.223Z,40.80
2024-04-30T16:46:26.117Z,40.91
2024-04-30T16:48:57.354Z,41.88
2024-04-30T16:51:25.511Z,40.57
2024-04-30T16:53:53.687Z,41.91
2024-04-30T16:56:21.576Z,41.26
2024-04-30T16:58:51.039Z,42.32
2024-04-30T17:01:19.021Z,42.37
2024-04-30T17:03:49.541Z,42.50
2024-04-30T17:06:19.382Z,42.25
2024-04-30T17:08:47.421Z,42.28
2024-04-30T17:11:15.460Z,42.25
2024-04-30T17:13:44.007Z,42.48
2024-04-30T17:16:23.436Z,44.00
2024-04-30T17:18:51.993Z,44.45
2024-04-30T17:21:22.592Z,43.84
2024-04-30T17:23:50.825Z,43.51
2024-04-30T17:26:26.405Z,43.74
2024-04-30T17:28:55.660Z,44.67
2024-04-30T17:31:24.978Z,44.93
2024-04-30T17:33:56.785Z,44.94
2024-04-30T17:36:25.376Z,44.92
2024-04-30T17:38:53.707Z,45.17
2024-04-30T17:41:27.293Z,45.42
2024-04-30T17:43:55.557Z,46.07
2024-04-30T17:46:26.783Z,45.55
2024-04-30T17:48:56.383Z,45.57
2024-04-30T17:51:28.332Z,45.75
2024-04-30T17:53:56.631Z,46.02
2024-04-30T17:56:24.507Z,45.88
2024-04-30T17:58:52.447Z,46.20
2024-04-30T18:01:20.436Z,46.70
2024-04-30T18:03:55.762Z,46.74
2024-04-30T18:06:24.829Z,46.64
2024-04-30T18:08:57.653Z,47.55
2024-04-30T18:11:26.755Z,47.28
2024-04-30T18:13:56.426Z,46.74
2024-04-30T18:16:26.133Z,46.22
2024-04-30T18:18:55.571Z,47.08
2024-04-30T18:21:27.658Z,48.42
2024-04-30T18:23:56.354Z,47.34
2024-04-30T18:26:24.213Z,46.83
2024-04-30T18:28:56.026Z,47.28
2024-04-30T18:31:25.733Z,47.00
2024-04-30T18:33:55.715Z,47.49
2024-04-30T18:36:25.984Z,48.48
2024-04-30T18:38:55.016Z,48.81
2024-04-30T18:41:29.806Z,49.39
2024-04-30T18:43:59.787Z,49.06
2024-04-30T18:46:28.199Z,48.92
2024-04-30T18:48:56.655Z,48.77
2024-04-30T18:51:25.580Z,50.01
2024-04-30T18:53:54.138Z,50.74
2024-04-30T18:56:22.289Z,51.77
2024-04-30T18:58:50.209Z,51.69
2024-04-30T19:01:18.517Z,50.67
2024-04-30T19:03:49.679Z,51.90
2024-04-30T19:06:21.305Z,51.60
2024-04-30T19:08:49.495Z,52.34
2024-04-30T19:11:17.420Z,53.76
2024-04-30T19:13:45.639Z,54.09
2024-04-30T19:16:13.674Z,53.69
2024-04-30T19:18:41.666Z,54.27
2024-04-30T19:21:09.768Z,54.00
2024-04-30T19:23:37.734Z,53.32
2024-04-30T19:26:13.276Z,53.97
2024-04-30T19:28:41.184Z,53.10
2024-04-30T19:31:20.844Z,54.53
2024-04-30T19:33:49.615Z,54.14
2024-04-30T19:36:19.489Z,53.11
2024-04-30T19:38:47.883Z,53.79
2024-04-30T19:41:17.016Z,53.83
2024-04-30T19:43:44.875Z,53.45
2024-04-30T19:46:21.892Z,52.78
2024-04-30T19:48:52.558Z,53.15
2024-04-30T19:51:22.210Z,53.68
2024-04-30T19:53:53.083Z,53.81
2024-04-30T19:56:22.236Z,53.86
2024-04-30T19:58:57.106Z,52.96
2024-04-30T20:01:28.858Z,53.51
2024-04-30T20:03:58.502Z,52.55
2024-04-30T20:06:27.278Z,52.72
2024-04-30T20:08:55.287Z,53.21
2024-04-30T20:11:25.286Z,52.86
2024-04-30T20:13:54.622Z,52.41
2024-04-30T20:16:26.903Z,53.14
2024-04-30T20:18:55.312Z,53.52
2024-04-30T20:21:25.500Z,53.21
2024-04-30T20:23:54.415Z,52.91
2024-04-30T20:26:22.366Z,53.21
2024-04-30T20:28:50.233Z,53.36
2024-04-30T20:31:18.144Z,52.71
2024-04-30T20:33:46.487Z,53.28
2024-04-30T20:36:18.878Z,53.94
2024-04-30T20:38:47.114Z,53.47
2024-04-30T20:41:15.176Z,53.58
2024-04-30T20:43:43.085Z,53.80
2024-04-30T20:46:10.930Z,53.66
2024-04-30T20:48:39.018Z,53.95
2024-04-30T20:51:07.010Z,54.93
2024-04-30T20:53:34.844Z,54.65
2024-04-30T20:56:05.764Z,54.79
2024-04-30T20:58:33.694Z,54.55
2024-04-30T21:01:01.679Z,54.50
2024-04-30T21:03:29.766Z,54.73
2024-04-30T21:05:57.780Z,54.64
2024-04-30T21:08:25.644Z,55.86
2024-04-30T21:10:53.767Z,55.36
2024-04-30T21:13:21.908Z,55.32
2024-04-30T21:15:49.821Z,54.96
2024-04-30T21:18:17.788Z,55.79
2024-04-30T21:20:45.710Z,55.39
2024-04-30T21:23:13.613Z,55.03
2024-04-30T21:25:41.531Z,54.69
2024-04-30T21:28:09.368Z,54.26
2024-04-30T21:30:37.259Z,54.65
2024-04-30T21:33:05.370Z,54.76
2024-04-30T21:35:33.835Z,54.50
2024-04-30T21:38:01.741Z,54.30
2024-04-30T21:40:29.651Z,54.23
2024-04-30T21:42:57.598Z,54.21
2024-04-30T21:45:25.650Z,54.20
2024-04-30T21:47:53.583Z,54.17
2024-04-30T21:50:21.678Z,53.98
2024-04-30T21:52:49.535Z,54.44
2024-04-30T21:55:17.436Z,54.47
2024-04-30T21:57:45.347Z,54.71
2024-04-30T22:00:14.618Z,54.97
2024-04-30T22:02:42.567Z,54.76
2024-04-30T22:05:10.586Z,54.57
2024-04-30T22:07:38.438Z,54.45
2024-04-30T22:10:06.739Z,55.00
2024-04-30T22:12:34.831Z,55.32
2024-04-30T22:15:02.752Z,55.26
2024-04-30T22:17:30.722Z,55.76
2024-04-30T22:19:58.826Z,56.82
2024-04-30T22:22:26.721Z,56.29
2024-04-30T22:24:54.829Z,55.90
2024-04-30T22:27:22.954Z,56.18
2024-04-30T22:29:57.577Z,57.15
2024-04-30T22:32:25.995Z,57.34
2024-04-30T22:34:53.952Z,57.45
2024-04-30T22:37:21.764Z,57.42
2024-04-30T22:39:49.663Z,57.63
2024-04-30T22:42:17.579Z,57.44
2024-04-30T22:44:45.406Z,57.59
2024-04-30T22:47:14.288Z,58.00
2024-04-30T22:49:42.999Z,57.44
2024-04-30T22:52:11.223Z,57.75
2024-04-30T22:54:39.132Z,57.91
2024-04-30T22:57:07.235Z,58.15
2024-04-30T22:59:35.186Z,57.90
2024-04-30T23:02:03.059Z,58.19
2024-04-30T23:04:30.964Z,58.39
2024-04-30T23:06:58.947Z,58.41
2024-04-30T23:09:29.262Z,58.95
2024-04-30T23:11:58.669Z,59.00
2024-04-30T23:14:26.636Z,58.81
2024-04-30T23:16:54.681Z,58.94
2024-04-30T23:19:22.634Z,59.04
2024-04-30T23:21:50.704Z,59.10
2024-04-30T23:24:18.811Z,59.13
2024-04-30T23:26:46.619Z,59.28
2024-04-30T23:29:14.488Z,59.62
2024-04-30T23:31:42.413Z,59.77
2024-04-30T23:34:10.286Z,59.99
2024-04-30T23:36:38.206Z,61.22
2024-04-30T23:39:06.062Z,60.48
2024-04-30T23:41:33.929Z,60.99
2024-04-30T23:44:01.768Z,61.69
2024-04-30T23:46:29.682Z,62.00
2024-04-30T23:48:57.703Z,61.66
2024-04-30T23:51:25.673Z,62.60
2024-04-30T23:53:53.632Z,62.67
2024-04-30T23:56:21.488Z,63.38
2024-04-30T23:58:49.630Z,63.65
